UAL429 KSAN-KLAX
Flight info
| Callsign | UAL429 |
|---|---|
| Flight time | 0h 22m |
| Altitude | 10000 |
| Route | KSAN CWARD2 SLI |
| Aircraft | B738/M-G/C |
Departure
| Time | 2026-04-21 14:55 |
|---|---|
| Airport | San Diego International Airport (KSAN) |
Arrival
| Time | 2026-04-21 15:17 |
|---|---|
| Airport | Los Angeles International Airport (KLAX) |
| Time | Latitude | Longitude | Altitude | Speed | Heading |
|---|---|---|---|---|---|
| 2026-04-21 14:36 | 32.73338 | -117.20183 | 21 ft | 0 kts | 84° |
| 2026-04-21 14:45 | 32.73336 | -117.20203 | 21 ft | 3 kts | 84° |
| 2026-04-21 14:46 | 32.73333 | -117.20232 | 21 ft | 3 kts | 84° |
| 2026-04-21 14:46 | 32.73331 | -117.20262 | 21 ft | 3 kts | 84° |
| 2026-04-21 14:46 | 32.73329 | -117.20277 | 21 ft | 0 kts | 73° |
| 2026-04-21 14:46 | 32.73329 | -117.20280 | 21 ft | 0 kts | 63° |
| 2026-04-21 14:47 | 32.73328 | -117.20282 | 21 ft | 0 kts | 61° |
| 2026-04-21 14:49 | 32.73329 | -117.20279 | 21 ft | 1 kts | 58° |
| 2026-04-21 14:49 | 32.73344 | -117.20278 | 21 ft | 4 kts | 357° |
| 2026-04-21 14:50 | 32.73376 | -117.20278 | 21 ft | 9 kts | 5° |
| 2026-04-21 14:50 | 32.73510 | -117.20236 | 21 ft | 19 kts | 39° |
| 2026-04-21 14:50 | 32.73520 | -117.20069 | 21 ft | 24 kts | 108° |
| 2026-04-21 14:50 | 32.73467 | -117.19849 | 21 ft | 31 kts | 106° |
| 2026-04-21 14:51 | 32.73396 | -117.19572 | 23 ft | 38 kts | 104° |
| 2026-04-21 14:51 | 32.73323 | -117.19257 | 24 ft | 39 kts | 107° |
| 2026-04-21 14:51 | 32.73249 | -117.18948 | 22 ft | 38 kts | 101° |
| 2026-04-21 14:51 | 32.73177 | -117.18657 | 21 ft | 36 kts | 103° |
| 2026-04-21 14:52 | 32.73112 | -117.18372 | 21 ft | 35 kts | 107° |
| 2026-04-21 14:52 | 32.73039 | -117.18092 | 21 ft | 35 kts | 106° |
| 2026-04-21 14:52 | 32.72977 | -117.17828 | 24 ft | 25 kts | 106° |
| 2026-04-21 14:52 | 32.72952 | -117.17723 | 26 ft | 10 kts | 106° |
| 2026-04-21 14:53 | 32.72950 | -117.17656 | 26 ft | 0 kts | 85° |
| 2026-04-21 14:53 | 32.72950 | -117.17654 | 26 ft | 2 kts | 85° |
| 2026-04-21 14:53 | 32.72961 | -117.17580 | 27 ft | 13 kts | 75° |
| 2026-04-21 14:54 | 32.73003 | -117.17528 | 28 ft | 8 kts | 321° |
| 2026-04-21 14:54 | 32.73027 | -117.17598 | 28 ft | 13 kts | 289° |
| 2026-04-21 14:54 | 32.73110 | -117.17946 | 24 ft | 85 kts | 285° |
| 2026-04-21 14:54 | 32.73346 | -117.18928 | 25 ft | 158 kts | 285° |
| 2026-04-21 14:55 | 32.73703 | -117.20326 | 433 ft | 188 kts | 289° |
| 2026-04-21 14:55 | 32.74178 | -117.21733 | 1349 ft | 192 kts | 296° |
| 2026-04-21 14:55 | 32.74868 | -117.23126 | 2059 ft | 199 kts | 308° |
| 2026-04-21 14:55 | 32.75771 | -117.24488 | 2436 ft | 221 kts | 307° |
| 2026-04-21 14:56 | 32.76684 | -117.26047 | 2918 ft | 239 kts | 304° |
| 2026-04-21 14:56 | 32.77626 | -117.27710 | 3569 ft | 248 kts | 304° |
| 2026-04-21 14:56 | 32.78590 | -117.29420 | 4186 ft | 259 kts | 303° |
| 2026-04-21 14:56 | 32.79625 | -117.31267 | 4785 ft | 272 kts | 304° |
| 2026-04-21 14:57 | 32.80742 | -117.33076 | 5533 ft | 277 kts | 308° |
| 2026-04-21 14:57 | 32.81937 | -117.34885 | 6318 ft | 280 kts | 307° |
| 2026-04-21 14:57 | 32.83112 | -117.36704 | 7088 ft | 282 kts | 306° |
| 2026-04-21 14:57 | 32.84304 | -117.38568 | 7814 ft | 286 kts | 306° |
| 2026-04-21 14:58 | 32.85508 | -117.40434 | 8534 ft | 290 kts | 306° |
| 2026-04-21 14:58 | 32.86742 | -117.42338 | 9234 ft | 294 kts | 306° |
| 2026-04-21 14:58 | 32.88000 | -117.44289 | 9835 ft | 300 kts | 305° |
| 2026-04-21 14:58 | 32.89280 | -117.46294 | 9925 ft | 305 kts | 305° |
| 2026-04-21 14:59 | 32.90550 | -117.48267 | 9933 ft | 298 kts | 306° |
| 2026-04-21 14:59 | 32.91841 | -117.50258 | 9940 ft | 313 kts | 306° |
| 2026-04-21 14:59 | 32.93218 | -117.52409 | 9944 ft | 337 kts | 305° |
| 2026-04-21 14:59 | 32.94677 | -117.54699 | 9924 ft | 359 kts | 306° |
| 2026-04-21 15:00 | 32.96195 | -117.57064 | 9918 ft | 354 kts | 306° |
| 2026-04-21 15:00 | 32.97700 | -117.59390 | 9916 ft | 354 kts | 306° |
| 2026-04-21 15:00 | 32.99204 | -117.61728 | 9921 ft | 355 kts | 306° |
| 2026-04-21 15:00 | 33.00689 | -117.64055 | 9922 ft | 355 kts | 306° |
| 2026-04-21 15:01 | 33.02173 | -117.66380 | 9923 ft | 355 kts | 305° |
| 2026-04-21 15:01 | 33.03675 | -117.68741 | 9923 ft | 355 kts | 305° |
| 2026-04-21 15:01 | 33.05168 | -117.71072 | 9905 ft | 355 kts | 305° |
| 2026-04-21 15:01 | 33.06768 | -117.73309 | 9909 ft | 357 kts | 314° |
| 2026-04-21 15:02 | 33.08641 | -117.75245 | 9919 ft | 357 kts | 319° |
| 2026-04-21 15:02 | 33.10557 | -117.77148 | 9919 ft | 358 kts | 318° |
| 2026-04-21 15:02 | 33.12436 | -117.79075 | 9919 ft | 356 kts | 317° |
| 2026-04-21 15:02 | 33.14336 | -117.81028 | 9915 ft | 358 kts | 317° |
| 2026-04-21 15:03 | 33.16210 | -117.82935 | 9915 ft | 357 kts | 318° |
| 2026-04-21 15:03 | 33.18116 | -117.84840 | 9932 ft | 357 kts | 321° |
| 2026-04-21 15:03 | 33.20266 | -117.86332 | 9925 ft | 360 kts | 338° |
| 2026-04-21 15:03 | 33.22715 | -117.87075 | 9914 ft | 361 kts | 348° |
| 2026-04-21 15:04 | 33.25177 | -117.87618 | 9911 ft | 362 kts | 348° |
| 2026-04-21 15:04 | 33.27664 | -117.88234 | 9918 ft | 363 kts | 347° |
| 2026-04-21 15:04 | 33.30125 | -117.88860 | 9916 ft | 361 kts | 347° |
| 2026-04-21 15:04 | 33.32574 | -117.89472 | 9914 ft | 361 kts | 347° |
| 2026-04-21 15:05 | 33.35050 | -117.90084 | 9915 ft | 361 kts | 347° |
| 2026-04-21 15:05 | 33.39787 | -117.91331 | 9915 ft | 330 kts | 342° |
| 2026-04-21 15:05 | 33.41931 | -117.92137 | 9925 ft | 313 kts | 340° |
| 2026-04-21 15:06 | 33.43948 | -117.92914 | 9921 ft | 297 kts | 341° |
| 2026-04-21 15:06 | 33.45919 | -117.93634 | 9922 ft | 297 kts | 342° |
| 2026-04-21 15:06 | 33.47907 | -117.94359 | 9928 ft | 300 kts | 341° |
| 2026-04-21 15:06 | 33.49898 | -117.95092 | 9928 ft | 299 kts | 341° |
| 2026-04-21 15:07 | 33.51878 | -117.95820 | 9924 ft | 297 kts | 341° |
| 2026-04-21 15:07 | 33.53875 | -117.96542 | 9928 ft | 298 kts | 342° |
| 2026-04-21 15:07 | 33.55853 | -117.97253 | 9885 ft | 298 kts | 342° |
| 2026-04-21 15:07 | 33.57849 | -117.97974 | 9706 ft | 300 kts | 342° |
| 2026-04-21 15:08 | 33.59858 | -117.98710 | 9466 ft | 299 kts | 341° |
| 2026-04-21 15:08 | 33.61829 | -117.99438 | 9170 ft | 295 kts | 341° |
| 2026-04-21 15:08 | 33.63779 | -118.00153 | 8879 ft | 290 kts | 342° |
| 2026-04-21 15:08 | 33.65694 | -118.00849 | 8587 ft | 286 kts | 342° |
| 2026-04-21 15:09 | 33.67571 | -118.01532 | 8297 ft | 282 kts | 342° |
| 2026-04-21 15:09 | 33.69438 | -118.02214 | 8041 ft | 278 kts | 342° |
| 2026-04-21 15:09 | 33.71279 | -118.02889 | 7793 ft | 274 kts | 342° |
| 2026-04-21 15:09 | 33.73078 | -118.03552 | 7543 ft | 269 kts | 342° |
| 2026-04-21 15:10 | 33.74841 | -118.04237 | 7295 ft | 264 kts | 341° |
| 2026-04-21 15:10 | 33.76590 | -118.04926 | 7045 ft | 259 kts | 341° |
| 2026-04-21 15:10 | 33.78267 | -118.05586 | 6794 ft | 255 kts | 341° |
| 2026-04-21 15:10 | 33.79966 | -118.06261 | 6472 ft | 253 kts | 341° |
| 2026-04-21 15:11 | 33.81626 | -118.06928 | 6158 ft | 252 kts | 341° |
| 2026-04-21 15:11 | 33.83293 | -118.07606 | 5839 ft | 251 kts | 341° |
| 2026-04-21 15:11 | 33.84925 | -118.08273 | 5520 ft | 250 kts | 341° |
| 2026-04-21 15:11 | 33.86576 | -118.08948 | 5201 ft | 248 kts | 341° |
| 2026-04-21 15:12 | 33.88195 | -118.09613 | 4995 ft | 239 kts | 341° |
| 2026-04-21 15:12 | 33.89726 | -118.10242 | 4957 ft | 228 kts | 341° |
| 2026-04-21 15:12 | 33.91218 | -118.10857 | 4959 ft | 228 kts | 341° |
| 2026-04-21 15:12 | 33.92736 | -118.11483 | 4962 ft | 228 kts | 341° |
| 2026-04-21 15:13 | 33.94227 | -118.12099 | 4962 ft | 229 kts | 341° |
| 2026-04-21 15:13 | 33.95647 | -118.12975 | 4960 ft | 230 kts | 319° |
| 2026-04-21 15:13 | 33.96542 | -118.14544 | 4960 ft | 229 kts | 290° |
| 2026-04-21 15:13 | 33.96806 | -118.16428 | 4734 ft | 231 kts | 264° |
| 2026-04-21 15:14 | 33.96490 | -118.18313 | 4451 ft | 227 kts | 255° |
| 2026-04-21 15:14 | 33.96080 | -118.20138 | 4151 ft | 226 kts | 253° |
| 2026-04-21 15:14 | 33.95631 | -118.21929 | 3854 ft | 225 kts | 252° |
| 2026-04-21 15:14 | 33.95267 | -118.23746 | 3555 ft | 224 kts | 259° |
| 2026-04-21 15:15 | 33.95022 | -118.25573 | 3238 ft | 212 kts | 262° |
| 2026-04-21 15:15 | 33.94850 | -118.27277 | 2867 ft | 200 kts | 263° |
| 2026-04-21 15:15 | 33.94685 | -118.28883 | 2596 ft | 183 kts | 263° |
| 2026-04-21 15:15 | 33.94533 | -118.30378 | 2572 ft | 178 kts | 263° |
| 2026-04-21 15:16 | 33.94383 | -118.31907 | 2082 ft | 189 kts | 264° |
| 2026-04-21 15:16 | 33.94218 | -118.33443 | 1629 ft | 185 kts | 263° |
| 2026-04-21 15:16 | 33.94058 | -118.34979 | 1033 ft | 187 kts | 264° |
| 2026-04-21 15:16 | 33.93922 | -118.36503 | 532 ft | 183 kts | 262° |
| 2026-04-21 15:17 | 33.93756 | -118.37974 | 222 ft | 170 kts | 264° |
| 2026-04-21 15:17 | 33.93633 | -118.39304 | 109 ft | 150 kts | 259° |
| 2026-04-21 15:17 | 33.93508 | -118.40372 | 121 ft | 93 kts | 266° |
| 2026-04-21 15:17 | 33.93479 | -118.40868 | 127 ft | 35 kts | 269° |
| 2026-04-21 15:18 | 33.93521 | -118.41130 | 127 ft | 17 kts | 294° |
| 2026-04-21 15:18 | 33.93550 | -118.41202 | 127 ft | 0 kts | 297° |
| 2026-04-21 15:18 | 33.93551 | -118.41206 | 127 ft | 0 kts | 297° |
| 2026-04-21 15:19 | 33.93555 | -118.41213 | 127 ft | 2 kts | 301° |
| 2026-04-21 15:19 | 33.93601 | -118.41254 | 127 ft | 14 kts | 337° |
| 2026-04-21 15:19 | 33.93730 | -118.41272 | 127 ft | 21 kts | 5° |
| 2026-04-21 15:20 | 33.93845 | -118.41150 | 127 ft | 28 kts | 81° |
| 2026-04-21 15:20 | 33.93874 | -118.40878 | 127 ft | 36 kts | 82° |
| 2026-04-21 15:20 | 33.93903 | -118.40570 | 124 ft | 36 kts | 85° |
| 2026-04-21 15:20 | 33.93936 | -118.40279 | 121 ft | 33 kts | 84° |
| 2026-04-21 15:21 | 33.93955 | -118.40027 | 118 ft | 18 kts | 85° |
| 2026-04-21 15:21 | 33.93974 | -118.39883 | 115 ft | 15 kts | 58° |
| 2026-04-21 15:21 | 33.94064 | -118.39831 | 114 ft | 13 kts | 6° |
| 2026-04-21 15:21 | 33.94146 | -118.39838 | 114 ft | 8 kts | 13° |
| 2026-04-21 15:22 | 33.94166 | -118.39793 | 114 ft | 1 kts | 79° |